Aérodrome :
LOGIN :

S'inscrire | Disclaimer

   EN    FR    IT 

 










Légende :    VFR   VFR Marginal   IFR   IFR Intensif   IFR Très Intensif
Visi : 
Plafond : 
>= 8 km
>= 3000ft
5 à 8 km
1000 à 3000 ft
1500m à 5 km
500 à 1000 ft
800 à 1500m
200 à 500 ft
< 800m
< 200 ft
Symboles :   Orages  Brouillard  Fortes neiges  Fortes précipitations  Vent > 20 kt
SIGMETs :   Divers  Orages  Givrage  Turbulence  Onde Orograph.  Cendres Volcan.







- Altitude de l'aérodrome : 202 ft
- Code IATA : SQZ


EGXP - RAF Scampton

DERNIER METAR :
  • 251415Z 03004KT 5000 HZ BKN014 BKN100 18/15 Q1020 GRN

METARs EXPIRÉS :
  • 251350Z 34005KT 3500 HZ BKN018 BKN100 18/15 Q1021 YLO1
  • 251250Z 23001KT 4000 HZ SCT014 OVC100 18/14 Q1021 GRN
  • 251150Z 12002KT 5000 HZ SCT013 OVC100 17/15 Q1020 GRN

TAF TAF EGXP
Valide du 25 à 12h jusqu'au 25 à 17h UTC


251029Z 2512/2517 11005KT 4000 BR FEW008
BECMG 2512/2514 9999 NSW
PROB30
TEMPO 2512/2513 SCT008
PROB30
TEMPO 2513/2516 SCT015
Pas de NOTAMs connus pour ce terrain.



MET'MAP, la Météo Aéronautique d'un coup d'oeil ! - Copyright ORBIFLY Décembre 2007 - Disclaimer

ORBIFLY MET'MAP TEAM :

Programmation & Développement : Alexandra Zaïnal
Conception & Développement : Baudouin d'Aumeries
Co-Programmation & Développement : Marc-Olivier Méhu
Soutien technique & logistique : Manuel Goepfert

Contact : metmap@orbifly.com




SOURCES & CREDITS :

   NOAA